Flight Track Log - Related Links

Times and Time Zones

All times are in EDT time to prevent confusion due to time zone crossing. See the SKW4664 flight status page for this flight to view local times or setup timezone preferences in your user account.

Time Position Orientation Groundspeed Altitude Reporting Facility
EDT Latitude Longitude Course Direction KTS MPH feet Rate Location/Type
Thu 10:40:45 AM 44.8833 -93.2833 235° Southwest 177 204 2,800  Level Minneapolis TRACON
Thu 10:41:04 AM 44.8858 -93.3161 276° West 191 220 3,300 2,444 Climbing Minneapolis Center
Thu 10:42:06 AM 44.8753 -93.4086 261° West 234 269 6,100 2,613 Climbing Minneapolis Center
Thu 10:43:00 AM 44.6252 -93.7497 235° Southwest  Level FlightAware Approximate
Thu 10:43:08 AM 44.8617 -93.5264 261° West 283 326 8,700  Level Minneapolis Center
Thu 10:44:00 AM 44.5512 -93.8758 230° Southwest  Level FlightAware Approximate
Thu 10:44:10 AM 44.8103 -93.6150 231° Southwest 296 341 11,300  Level Minneapolis Center
Thu 10:45:00 AM 44.4801 -94.0066 235° Southwest  Level FlightAware Approximate
Thu 10:45:12 AM 44.7433 -93.7075 224° Southwest 313 360 13,400  Level Minneapolis Center
Thu 10:46:00 AM 44.4310 -94.1047 235° Southwest  Level FlightAware Approximate
Thu 10:46:14 AM 44.6956 -93.8153 238° Southwest 333 383 14,800  Level Minneapolis Center
Thu 10:47:16 AM 44.6514 -93.9486 245° Southwest 352 405 16,000 1,500 Climbing Minneapolis Center
Thu 10:48:18 AM 44.6086 -94.0756 245° Southwest 360 414 17,900 968 Climbing Minneapolis Center
Thu 10:49:20 AM 44.5656 -94.2061 245° Southwest 373 429 18,000 48 Climbing Minneapolis Center
Thu 10:50:22 AM 44.5192 -94.3378 244° Southwest 390 449 18,000  Level Minneapolis Center
Thu 10:51:24 AM 44.4731 -94.4744 245° Southwest 389 448 18,000  Level Minneapolis Center
Thu 10:52:26 AM 44.4197 -94.6386 246° West 388 447 18,000  Level Minneapolis Center
Thu 10:53:28 AM 44.3708 -94.7764 244° Southwest 392 451 18,000  Level Minneapolis Center
Thu 10:54:30 AM 44.3233 -94.9139 244° Southwest 394 453 18,000  Level Minneapolis Center
Thu 10:55:32 AM 44.2767 -95.0497 244° Southwest 391 450 18,000  Level Minneapolis Center
Thu 10:56:35 AM 44.2281 -95.1856 243° Southwest 391 450 18,000  Level Minneapolis Center
Thu 10:57:37 AM 44.1794 -95.3225 244° Southwest 392 451 18,000 -387 Level Minneapolis Center
Thu 10:58:39 AM 44.1206 -95.4861 243° Southwest 393 452 17,200 -871 Descending Minneapolis Center
Thu 10:59:41 AM 44.0703 -95.6292 244° Southwest 400 460 16,200 -1,016 Descending Minneapolis Center
Thu 11:00:43 AM 44.0200 -95.7692 244° Southwest 403 464 15,100 -1,016 Descending Minneapolis Center
Thu 11:01:45 AM 43.9714 -95.9042 243° Southwest 398 458 14,100 -1,210 Descending Minneapolis Center
Thu 11:02:47 AM 43.9236 -96.0361 243° Southwest 389 448 12,600 -1,452 Descending Minneapolis Center
Thu 11:03:49 AM 43.8794 -96.1553 243° Southwest 365 420 11,100 -1,452 Descending Minneapolis Center
Thu 11:04:51 AM 43.8314 -96.2458 234° Southwest 318 366 9,600 -1,452 Descending Minneapolis Center
Thu 11:05:53 AM 43.7717 -96.3197 222° Southwest 299 344 8,100 -1,645 Descending Minneapolis Center
Thu 11:06:55 AM 43.7042 -96.4092 224° Southwest 286 329 6,200 -1,016 Descending Minneapolis Center
Thu 11:07:57 AM 43.6519 -96.4794 224° Southwest 276 318 6,000 -97 Descending Minneapolis Center
Thu 11:08:59 AM 43.6047 -96.5425 224° Southwest 257 296 6,000 -194 Level Minneapolis Center
Thu 11:10:01 AM 43.5578 -96.6017 222° Southwest 242 278 5,600 -726 Descending Minneapolis Center
Thu 11:11:03 AM 43.5092 -96.6619 222° Southwest 237 273 4,500 -919 Descending Minneapolis Center
Thu 11:12:05 AM 43.4636 -96.7178 222° Southwest 229 264 3,700 -528 Descending Minneapolis Center
Thu 11:13:08 AM 43.4114 -96.7836 222° Southwest 220 253 3,400 -144 Descending Minneapolis Center
Thu 11:14:10 AM 43.4114 -96.8586 270° West 231 266 3,400  Level Minneapolis Center

Login

Don't have an account? Register now (free) for customized features, flight alerts, and more!